Time;durP1;ratioP1;P1;durP2;ratioP2;P2;SDS_P1;SDS_P2;PMS_P1;PMS_P2;Temp;Humidity;BMP_temperature;BMP_pressure;BME280_temperature;BME280_humidity;BME280_pressure;Samples;Min_cycle;Max_cycle;Signal;HPM_P1;HPM_P2
2024/04/22 00:01:31;;;;;;;10.80;9.95;;;;;;;;;;5223163;27;20240;-86
2024/04/22 00:03:57;;;;;;;10.50;9.60;;;;;;;;;;5179447;27;20326;-85
2024/04/22 00:06:23;;;;;;;10.03;9.20;;;;;;;;;;5206526;27;20261;-85
2024/04/22 00:08:49;;;;;;;10.10;9.25;;;;;;;;;;5193725;27;20483;-86
2024/04/22 00:11:15;;;;;;;10.48;9.68;;;;;;;;;;5217099;27;20626;-86
2024/04/22 00:13:41;;;;;;;10.57;9.77;;;;;;;;;;5221819;27;20247;-86
2024/04/22 00:16:07;;;;;;;9.70;9.00;;;;;;;;;;5218279;27;20538;-86
2024/04/22 00:18:33;;;;;;;11.27;10.18;;;;;;;;;;5184603;27;20276;-85
2024/04/22 00:20:59;;;;;;;9.80;9.00;;;;;;;;;;5216949;27;20241;-87
2024/04/22 00:23:25;;;;;;;10.05;9.15;;;;;;;;;;5185816;27;20276;-85
2024/04/22 00:25:51;;;;;;;10.10;9.30;;;;;;;;;;5217256;27;20294;-87
2024/04/22 00:28:17;;;;;;;9.73;8.97;;;;;;;;;;5217449;27;20477;-86
2024/04/22 00:30:43;;;;;;;10.23;9.38;;;;;;;;;;5215642;27;20484;-86
2024/04/22 00:33:10;;;;;;;10.67;9.80;;;;;;;;;;5195866;27;20257;-85
2024/04/22 00:35:38;;;;;;;10.57;9.63;;;;;;;;;;5182659;27;20574;-85
2024/04/22 00:38:04;;;;;;;9.80;9.10;;;;;;;;;;5219375;27;20307;-85
2024/04/22 00:40:30;;;;;;;9.55;8.90;;;;;;;;;;5226160;27;20293;-86
2024/04/22 00:42:56;;;;;;;9.88;9.20;;;;;;;;;;5191100;27;20692;-86
2024/04/22 00:45:22;;;;;;;10.00;9.20;;;;;;;;;;5216242;27;20241;-86
2024/04/22 00:47:48;;;;;;;10.77;10.00;;;;;;;;;;5224091;27;20463;-87
2024/04/22 00:50:14;;;;;;;10.35;9.65;;;;;;;;;;5221414;27;20487;-85
2024/04/22 00:52:41;;;;;;;10.88;9.90;;;;;;;;;;5187068;27;20288;-85
2024/04/22 00:55:08;;;;;;;10.57;9.82;;;;;;;;;;5224388;27;20365;-85
2024/04/22 00:57:36;;;;;;;11.32;10.52;;;;;;;;;;5190285;27;20352;-85
2024/04/22 01:00:03;;;;;;;10.50;9.80;;;;;;;;;;5226413;27;20249;-86
2024/04/22 01:02:29;;;;;;;10.88;10.05;;;;;;;;;;5219213;27;20325;-85
2024/04/22 01:04:56;;;;;;;11.00;10.18;;;;;;;;;;5201557;27;20306;-86
2024/04/22 01:07:22;;;;;;;12.07;10.95;;;;;;;;;;5235051;27;20257;-86
2024/04/22 01:09:48;;;;;;;10.23;9.48;;;;;;;;;;5218502;27;20777;-87
2024/04/22 01:12:14;;;;;;;10.57;9.68;;;;;;;;;;5225713;27;20253;-85
2024/04/22 01:14:40;;;;;;;10.85;10.10;;;;;;;;;;5201969;27;20253;-86
2024/04/22 01:17:06;;;;;;;11.00;10.27;;;;;;;;;;5193618;27;20241;-85
2024/04/22 01:19:32;;;;;;;11.60;10.73;;;;;;;;;;5180286;27;20530;-85
2024/04/22 01:21:58;;;;;;;12.35;11.35;;;;;;;;;;5170474;27;21054;-85
2024/04/22 01:24:24;;;;;;;12.23;11.03;;;;;;;;;;5208938;27;20253;-85
2024/04/22 01:26:51;;;;;;;13.10;10.93;;;;;;;;;;5225947;27;21030;-86
2024/04/22 01:29:17;;;;;;;12.48;11.38;;;;;;;;;;5210102;27;20349;-86
2024/04/22 01:31:42;;;;;;;12.13;11.10;;;;;;;;;;5217816;27;20256;-86
2024/04/22 01:34:08;;;;;;;12.17;11.13;;;;;;;;;;5163368;27;20545;-86
2024/04/22 01:36:40;;;;;;;11.70;10.90;;;;;;;;;;5201972;27;20489;-86
2024/04/22 01:39:06;;;;;;;10.75;10.05;;;;;;;;;;5171999;27;20256;-86
2024/04/22 01:41:32;;;;;;;13.18;11.95;;;;;;;;;;5195300;27;20248;-86
2024/04/22 01:43:58;;;;;;;12.87;11.77;;;;;;;;;;5225443;27;20842;-86
2024/04/22 01:46:24;;;;;;;12.63;11.30;;;;;;;;;;5183270;27;20477;-86
2024/04/22 01:48:50;;;;;;;13.17;12.07;;;;;;;;;;5230326;27;20488;-86
2024/04/22 01:51:16;;;;;;;12.77;11.67;;;;;;;;;;5216838;27;20473;-86
2024/04/22 01:53:42;;;;;;;12.97;11.90;;;;;;;;;;5218485;27;20570;-86
2024/04/22 01:56:08;;;;;;;12.07;11.00;;;;;;;;;;5198889;27;20517;-86
2024/04/22 01:58:34;;;;;;;13.87;12.67;;;;;;;;;;5189945;27;20625;-86
2024/04/22 02:01:04;;;;;;;12.33;11.33;;;;;;;;;;5202809;27;20991;-86
2024/04/22 02:03:30;;;;;;;12.82;11.60;;;;;;;;;;5223905;27;20484;-86
2024/04/22 02:05:55;;;;;;;14.07;12.95;;;;;;;;;;5199381;27;20282;-86
2024/04/22 02:08:21;;;;;;;12.90;11.80;;;;;;;;;;5200572;27;20246;-85
2024/04/22 02:10:47;;;;;;;14.07;11.93;;;;;;;;;;5218704;27;20635;-85
2024/04/22 02:13:13;;;;;;;12.40;11.40;;;;;;;;;;5190343;27;20490;-86
2024/04/22 02:15:40;;;;;;;13.68;12.45;;;;;;;;;;5229283;27;20530;-85
2024/04/22 02:18:06;;;;;;;14.10;12.90;;;;;;;;;;5218976;27;20268;-86
2024/04/22 02:20:33;;;;;;;14.25;13.05;;;;;;;;;;5222935;27;20265;-86
2024/04/22 02:22:59;;;;;;;13.65;12.55;;;;;;;;;;5193170;27;20682;-85
2024/04/22 02:25:25;;;;;;;14.25;12.95;;;;;;;;;;5195074;27;20346;-85
2024/04/22 02:27:51;;;;;;;15.35;13.25;;;;;;;;;;5182144;27;20602;-86
2024/04/22 02:30:17;;;;;;;15.18;13.77;;;;;;;;;;5225293;27;20290;-83
2024/04/22 02:32:43;;;;;;;14.68;13.30;;;;;;;;;;5194841;27;20248;-87
2024/04/22 02:35:09;;;;;;;14.50;13.10;;;;;;;;;;5222211;27;20686;-85
2024/04/22 02:37:35;;;;;;;13.93;12.60;;;;;;;;;;5231793;27;20533;-86
2024/04/22 02:40:01;;;;;;;12.97;11.97;;;;;;;;;;5223053;27;20492;-86
2024/04/22 02:42:27;;;;;;;15.20;13.80;;;;;;;;;;5205551;27;20472;-85
2024/04/22 02:44:53;;;;;;;15.33;12.77;;;;;;;;;;5231932;27;20455;-86
2024/04/22 02:47:19;;;;;;;14.80;13.60;;;;;;;;;;5200979;27;20478;-86
2024/04/22 02:49:45;;;;;;;14.53;13.43;;;;;;;;;;5220547;27;20517;-86
2024/04/22 02:52:11;;;;;;;14.10;12.90;;;;;;;;;;5193467;27;20476;-86
2024/04/22 02:54:37;;;;;;;14.60;13.30;;;;;;;;;;5218733;27;20608;-85
2024/04/22 02:57:03;;;;;;;15.27;13.67;;;;;;;;;;5202567;27;20528;-86
2024/04/22 02:59:29;;;;;;;15.57;14.13;;;;;;;;;;5190151;27;20553;-86
2024/04/22 03:01:55;;;;;;;15.40;14.18;;;;;;;;;;5205897;27;20257;-85
2024/04/22 03:04:22;;;;;;;14.60;13.30;;;;;;;;;;5187681;27;20272;-86
2024/04/22 03:06:48;;;;;;;15.25;13.85;;;;;;;;;;5217531;27;20472;-86
2024/04/22 03:09:14;;;;;;;18.48;16.55;;;;;;;;;;5211690;27;20253;-86
2024/04/22 03:11:40;;;;;;;15.50;14.17;;;;;;;;;;5225982;27;20824;-86
2024/04/22 03:14:06;;;;;;;16.13;14.57;;;;;;;;;;5221655;27;20484;-86
2024/04/22 03:16:32;;;;;;;16.10;14.50;;;;;;;;;;5184306;27;20309;-86
2024/04/22 03:18:58;;;;;;;14.63;13.23;;;;;;;;;;5219889;27;20466;-85
2024/04/22 03:21:24;;;;;;;15.73;13.45;;;;;;;;;;5188365;27;20280;-85
2024/04/22 03:23:50;;;;;;;15.70;14.40;;;;;;;;;;5221723;27;20721;-86
2024/04/22 03:26:16;;;;;;;14.90;13.70;;;;;;;;;;5192535;27;20490;-85
2024/04/22 03:28:42;;;;;;;15.17;13.87;;;;;;;;;;5186082;27;20471;-86
2024/04/22 03:31:08;;;;;;;14.10;13.00;;;;;;;;;;5197019;27;20481;-86
2024/04/22 03:33:34;;;;;;;14.47;13.47;;;;;;;;;;5225863;27;20465;-86
2024/04/22 03:36:00;;;;;;;15.67;14.47;;;;;;;;;;5194816;27;20565;-86
2024/04/22 03:38:26;;;;;;;14.93;13.73;;;;;;;;;;5221901;27;20517;-84
2024/04/22 03:40:52;;;;;;;15.45;14.10;;;;;;;;;;5182501;27;20718;-84
2024/04/22 03:43:18;;;;;;;15.02;13.63;;;;;;;;;;5197438;27;20780;-86
2024/04/22 03:49:50;;;;;;;14.70;13.40;;;;;;;;;;5197711;27;20240;-85
2024/04/22 03:51:15;;;;;;;16.02;14.63;;;;;;;;;;5213739;27;20380;-84
2024/04/22 03:53:41;;;;;;;15.33;14.10;;;;;;;;;;5225281;27;20260;-84
2024/04/22 03:56:07;;;;;;;17.00;15.33;;;;;;;;;;5194000;27;20472;-85
2024/04/22 03:58:33;;;;;;;16.20;14.70;;;;;;;;;;5198119;27;20467;-84
2024/04/22 04:00:59;;;;;;;17.30;15.70;;;;;;;;;;5225139;27;21034;-84
2024/04/22 04:03:25;;;;;;;18.63;16.83;;;;;;;;;;5173670;27;20461;-83
2024/04/22 04:05:51;;;;;;;16.53;14.80;;;;;;;;;;5227755;27;20262;-83
2024/04/22 04:08:17;;;;;;;15.55;14.35;;;;;;;;;;5201876;27;20555;-84
2024/04/22 04:10:43;;;;;;;18.48;16.58;;;;;;;;;;5178827;27;20251;-83
2024/04/22 04:13:09;;;;;;;17.08;15.13;;;;;;;;;;5227472;27;20257;-83
2024/04/22 04:15:36;;;;;;;17.23;15.10;;;;;;;;;;5221965;27;20256;-84
2024/04/22 04:18:02;;;;;;;17.55;15.75;;;;;;;;;;5222897;27;20473;-83
2024/04/22 04:20:28;;;;;;;16.87;15.27;;;;;;;;;;5208791;27;20249;-84
2024/04/22 04:22:54;;;;;;;17.50;15.80;;;;;;;;;;5220463;27;20776;-84
2024/04/22 04:25:20;;;;;;;17.30;15.80;;;;;;;;;;5197407;27;20821;-86
2024/04/22 04:27:46;;;;;;;22.27;17.20;;;;;;;;;;5217881;27;20457;-84
2024/04/22 04:30:11;;;;;;;17.57;15.67;;;;;;;;;;5192100;27;20518;-83
2024/04/22 04:32:37;;;;;;;17.90;16.40;;;;;;;;;;5229398;27;20516;-83
2024/04/22 04:35:04;;;;;;;17.75;16.08;;;;;;;;;;5224578;27;21017;-83
2024/04/22 04:37:30;;;;;;;16.13;14.63;;;;;;;;;;5228866;27;20249;-84
2024/04/22 04:39:56;;;;;;;17.93;16.23;;;;;;;;;;5168837;27;20287;-83
2024/04/22 04:42:21;;;;;;;19.00;17.00;;;;;;;;;;5192082;27;20486;-84
2024/04/22 04:44:49;;;;;;;17.27;15.57;;;;;;;;;;5192344;27;20469;-85
2024/04/22 04:47:14;;;;;;;28.02;22.85;;;;;;;;;;5211112;27;20993;-84
2024/04/22 04:49:41;;;;;;;26.13;23.60;;;;;;;;;;5192189;27;20237;-85
2024/04/22 04:52:06;;;;;;;25.20;22.70;;;;;;;;;;5222029;27;20517;-85
2024/04/22 04:54:32;;;;;;;23.43;21.20;;;;;;;;;;5192123;27;20252;-84
2024/04/22 04:56:58;;;;;;;21.10;19.20;;;;;;;;;;5182064;27;20816;-84
2024/04/22 04:59:24;;;;;;;21.93;19.97;;;;;;;;;;5192322;27;20483;-84
2024/04/22 05:01:51;;;;;;;20.53;18.90;;;;;;;;;;5218141;27;20473;-84
2024/04/22 05:04:17;;;;;;;21.67;19.90;;;;;;;;;;5221619;27;20484;-84
2024/04/22 05:06:43;;;;;;;19.10;17.17;;;;;;;;;;5192789;27;20325;-84
2024/04/22 05:09:09;;;;;;;22.67;20.42;;;;;;;;;;5201888;27;20606;-83
2024/04/22 05:11:35;;;;;;;23.55;21.38;;;;;;;;;;5202580;27;20251;-83
2024/04/22 05:14:02;;;;;;;22.25;20.13;;;;;;;;;;5203775;27;20252;-84
2024/04/22 05:16:27;;;;;;;23.00;20.92;;;;;;;;;;5221309;27;20302;-84
2024/04/22 05:18:54;;;;;;;23.83;21.53;;;;;;;;;;5196361;27;20251;-84
2024/04/22 05:21:20;;;;;;;23.92;21.83;;;;;;;;;;5224103;27;20529;-84
2024/04/22 05:23:48;;;;;;;22.57;20.50;;;;;;;;;;5198622;27;20249;-86
2024/04/22 05:26:14;;;;;;;25.25;22.10;;;;;;;;;;5219705;27;21336;-87
2024/04/22 05:28:40;;;;;;;24.33;21.88;;;;;;;;;;5192295;27;20295;-86
2024/04/22 05:31:06;;;;;;;25.48;22.77;;;;;;;;;;5218332;27;20311;-85
2024/04/22 05:36:17;;;;;;;24.02;21.77;;;;;;;;;;5224902;27;20362;-85
2024/04/22 05:38:43;;;;;;;24.20;21.67;;;;;;;;;;5217945;27;20258;-84
2024/04/22 05:41:09;;;;;;;24.27;22.05;;;;;;;;;;5218522;27;20790;-84
2024/04/22 05:43:36;;;;;;;25.10;22.17;;;;;;;;;;5226897;27;20252;-85
2024/04/22 05:46:02;;;;;;;25.92;23.38;;;;;;;;;;5218781;27;20232;-85
2024/04/22 05:48:27;;;;;;;25.90;23.48;;;;;;;;;;5219985;27;20383;-86
2024/04/22 05:50:53;;;;;;;25.83;23.33;;;;;;;;;;5222873;27;20248;-86
2024/04/22 05:53:19;;;;;;;28.73;25.70;;;;;;;;;;5218173;27;20542;-86
2024/04/22 05:55:45;;;;;;;27.60;24.95;;;;;;;;;;5219001;27;20464;-86
2024/04/22 05:58:11;;;;;;;26.53;24.00;;;;;;;;;;5235308;27;20243;-85
2024/04/22 06:00:37;;;;;;;25.37;22.77;;;;;;;;;;5221944;27;20942;-86
2024/04/22 06:03:03;;;;;;;26.58;23.92;;;;;;;;;;5228016;27;20539;-85
2024/04/22 06:05:29;;;;;;;27.10;24.40;;;;;;;;;;5215435;27;20244;-85
2024/04/22 06:07:55;;;;;;;26.87;24.23;;;;;;;;;;5199990;27;20622;-85
2024/04/22 06:10:21;;;;;;;27.90;25.10;;;;;;;;;;5218318;27;20451;-84
2024/04/22 06:12:47;;;;;;;29.02;26.23;;;;;;;;;;5218734;27;20263;-84
2024/04/22 06:15:13;;;;;;;29.30;26.27;;;;;;;;;;5218896;27;20193;-85
2024/04/22 06:17:39;;;;;;;26.85;24.08;;;;;;;;;;5218213;27;20506;-85
2024/04/22 06:20:07;;;;;;;28.50;25.57;;;;;;;;;;5246507;27;20227;-85
2024/04/22 06:22:35;;;;;;;28.98;25.92;;;;;;;;;;5225828;27;20485;-85
2024/04/22 06:25:01;;;;;;;29.23;25.38;;;;;;;;;;5241643;27;20245;-85
2024/04/22 06:27:27;;;;;;;28.15;24.60;;;;;;;;;;5190351;27;20231;-86
2024/04/22 06:29:53;;;;;;;35.53;24.00;;;;;;;;;;5221252;27;20271;-85
2024/04/22 06:32:19;;;;;;;29.00;26.00;;;;;;;;;;5229322;27;20240;-86
2024/04/22 06:34:45;;;;;;;28.47;25.50;;;;;;;;;;5186128;27;20367;-86
2024/04/22 06:37:12;;;;;;;30.17;25.30;;;;;;;;;;5217796;27;20501;-86
2024/04/22 06:39:38;;;;;;;29.40;25.52;;;;;;;;;;5239753;27;20453;-85
2024/04/22 06:42:04;;;;;;;34.78;25.73;;;;;;;;;;5210896;27;20275;-86
2024/04/22 06:44:30;;;;;;;30.00;26.00;;;;;;;;;;5229402;27;20256;-85
2024/04/22 06:46:57;;;;;;;27.27;24.38;;;;;;;;;;5250456;27;20247;-86
2024/04/22 06:49:23;;;;;;;29.75;26.95;;;;;;;;;;5229664;27;20253;-86
2024/04/22 06:51:49;;;;;;;29.33;26.20;;;;;;;;;;5218002;27;20690;-87
2024/04/22 06:54:15;;;;;;;29.47;26.70;;;;;;;;;;5199763;27;20539;-85
2024/04/22 06:56:41;;;;;;;28.27;25.17;;;;;;;;;;5231916;27;20455;-87
2024/04/22 06:59:07;;;;;;;28.57;25.67;;;;;;;;;;5219479;27;20437;-86
2024/04/22 07:01:33;;;;;;;30.90;27.50;;;;;;;;;;5226874;27;20872;-87
2024/04/22 07:04:00;;;;;;;30.17;25.25;;;;;;;;;;5227787;27;20453;-86
2024/04/22 07:06:26;;;;;;;25.42;22.80;;;;;;;;;;5223734;27;20229;-84
2024/04/22 07:08:52;;;;;;;27.33;24.38;;;;;;;;;;5223124;27;20253;-87
2024/04/22 07:11:18;;;;;;;26.00;23.60;;;;;;;;;;5221346;27;20291;-84
2024/04/22 07:13:44;;;;;;;26.30;23.67;;;;;;;;;;5223623;27;20265;-86
2024/04/22 07:16:10;;;;;;;24.15;21.80;;;;;;;;;;5217339;27;20744;-86
2024/04/22 07:18:36;;;;;;;24.30;21.90;;;;;;;;;;5212809;27;20316;-86
2024/04/22 07:21:02;;;;;;;27.37;24.77;;;;;;;;;;5229143;27;20475;-84
2024/04/22 07:23:28;;;;;;;22.10;19.90;;;;;;;;;;5216933;27;20481;-84
2024/04/22 07:25:54;;;;;;;22.53;20.33;;;;;;;;;;5188787;27;20489;-87
2024/04/22 07:28:20;;;;;;;20.88;18.77;;;;;;;;;;5189339;27;20469;-83
2024/04/22 07:30:46;;;;;;;18.58;17.08;;;;;;;;;;5168206;27;20239;-84
2024/04/22 07:33:12;;;;;;;19.58;16.48;;;;;;;;;;5221518;27;20290;-83
2024/04/22 07:35:43;;;;;;;16.63;15.15;;;;;;;;;;5225059;27;20374;-84
2024/04/22 07:38:11;;;;;;;15.75;14.45;;;;;;;;;;5214648;27;20323;-84
2024/04/22 07:40:37;;;;;;;14.13;12.98;;;;;;;;;;5219590;27;20248;-84
2024/04/22 07:43:03;;;;;;;13.35;12.23;;;;;;;;;;5223464;27;20260;-84
2024/04/22 07:45:29;;;;;;;11.77;10.57;;;;;;;;;;5227354;27;20237;-85
2024/04/22 07:47:55;;;;;;;15.48;11.60;;;;;;;;;;5209791;27;20251;-86
2024/04/22 07:52:57;;;;;;;12.70;11.70;;;;;;;;;;5227844;21;20775;-85
2024/04/22 07:55:24;;;;;;;13.68;12.57;;;;;;;;;;5211677;27;20240;-84
2024/04/22 07:57:51;;;;;;;14.15;12.88;;;;;;;;;;5209528;27;20276;-84
2024/04/22 08:00:19;;;;;;;12.05;11.10;;;;;;;;;;5215035;27;20236;-84
2024/04/22 08:02:45;;;;;;;13.13;12.02;;;;;;;;;;5210821;27;20249;-84
2024/04/22 08:05:11;;;;;;;12.70;11.60;;;;;;;;;;5211866;27;20257;-84
2024/04/22 08:07:39;;;;;;;12.23;11.13;;;;;;;;;;5178747;27;20268;-84
2024/04/22 08:10:05;;;;;;;13.45;12.18;;;;;;;;;;5172230;27;20245;-84
2024/04/22 08:12:31;;;;;;;12.50;11.35;;;;;;;;;;5211279;27;20751;-84
2024/04/22 08:14:57;;;;;;;12.70;11.60;;;;;;;;;;5221585;27;20237;-85
2024/04/22 08:17:23;;;;;;;12.50;11.50;;;;;;;;;;5172590;27;20279;-85
2024/04/22 08:19:49;;;;;;;11.57;10.70;;;;;;;;;;5207234;27;20620;-85
2024/04/22 08:22:18;;;;;;;11.02;10.13;;;;;;;;;;5218221;27;21090;-86
2024/04/22 08:24:44;;;;;;;10.52;9.63;;;;;;;;;;5215333;27;20240;-85
2024/04/22 08:27:13;;;;;;;10.43;9.63;;;;;;;;;;5208567;27;20250;-84
2024/04/22 08:29:39;;;;;;;10.65;9.60;;;;;;;;;;5188434;27;20673;-84
2024/04/22 08:32:06;;;;;;;10.43;9.70;;;;;;;;;;5194106;27;20284;-84
2024/04/22 08:34:32;;;;;;;9.88;9.10;;;;;;;;;;5206080;27;20476;-85
2024/04/22 08:36:58;;;;;;;10.73;9.75;;;;;;;;;;5209817;27;20280;-84
2024/04/22 08:39:24;;;;;;;9.73;8.87;;;;;;;;;;5221245;27;20244;-85
2024/04/22 08:41:50;;;;;;;8.60;7.90;;;;;;;;;;5212201;27;20490;-86
2024/04/22 08:44:16;;;;;;;9.27;8.57;;;;;;;;;;5154812;27;20498;-85
2024/04/22 08:46:42;;;;;;;9.25;8.45;;;;;;;;;;5206811;27;20484;-86
2024/04/22 08:49:08;;;;;;;9.30;8.60;;;;;;;;;;5214836;27;20363;-85
2024/04/22 08:51:36;;;;;;;9.20;8.40;;;;;;;;;;5214974;27;21007;-85
2024/04/22 08:54:03;;;;;;;9.88;9.10;;;;;;;;;;5174084;27;20818;-84
2024/04/22 08:56:29;;;;;;;9.07;8.27;;;;;;;;;;5195304;27;20253;-85
2024/04/22 08:58:55;;;;;;;9.02;8.43;;;;;;;;;;5214262;27;20743;-85
2024/04/22 09:01:21;;;;;;;8.83;8.13;;;;;;;;;;5211276;27;20245;-84
2024/04/22 09:03:47;;;;;;;8.27;7.77;;;;;;;;;;5207532;27;20469;-85
2024/04/22 09:06:13;;;;;;;8.30;7.80;;;;;;;;;;5215933;27;20949;-86
2024/04/22 09:08:46;;;;;;;8.80;8.20;;;;;;;;;;5213404;27;20548;-86
2024/04/22 09:11:16;;;;;;;8.13;7.63;;;;;;;;;;5205655;27;20537;-85
2024/04/22 09:13:42;;;;;;;8.20;7.70;;;;;;;;;;5212255;27;20505;-86
2024/04/22 09:16:08;;;;;;;9.10;8.40;;;;;;;;;;5193572;27;20454;-86
2024/04/22 09:18:36;;;;;;;8.47;7.87;;;;;;;;;;5211612;27;20541;-86
2024/04/22 09:21:08;;;;;;;7.77;7.27;;;;;;;;;;5200265;27;20462;-86
2024/04/22 09:23:34;;;;;;;7.50;7.07;;;;;;;;;;5202265;27;20471;-85
2024/04/22 09:26:00;;;;;;;7.47;7.07;;;;;;;;;;5212129;27;20530;-84
2024/04/22 09:28:28;;;;;;;7.60;7.00;;;;;;;;;;5201986;27;20526;-84
2024/04/22 09:30:54;;;;;;;7.20;6.70;;;;;;;;;;5209874;27;20529;-85
2024/04/22 09:33:25;;;;;;;11.30;6.40;;;;;;;;;;5202432;27;20511;-85
2024/04/22 09:35:52;;;;;;;6.10;5.80;;;;;;;;;;5215556;27;20880;-85
2024/04/22 09:38:18;;;;;;;6.50;5.97;;;;;;;;;;5182010;27;20536;-85
2024/04/22 09:40:45;;;;;;;7.60;7.20;;;;;;;;;;5184022;27;20543;-85
2024/04/22 09:43:12;;;;;;;7.53;7.03;;;;;;;;;;5208815;27;20519;-86
2024/04/22 09:45:39;;;;;;;7.67;7.27;;;;;;;;;;5171638;27;20483;-85
2024/04/22 09:48:06;;;;;;;7.80;7.30;;;;;;;;;;5192321;27;20613;-85
2024/04/22 09:50:32;;;;;;;7.83;7.33;;;;;;;;;;5216010;27;20851;-86
2024/04/22 09:53:00;;;;;;;8.43;7.93;;;;;;;;;;5207362;27;20477;-86
2024/04/22 09:55:28;;;;;;;7.90;7.50;;;;;;;;;;5206527;27;20532;-85
2024/04/22 09:57:58;;;;;;;7.90;7.30;;;;;;;;;;5199681;27;21038;-86
2024/04/22 10:00:24;;;;;;;7.90;7.40;;;;;;;;;;5217384;27;20610;-86
2024/04/22 10:02:51;;;;;;;8.47;7.87;;;;;;;;;;5202629;27;20459;-84
2024/04/22 10:05:17;;;;;;;7.23;6.83;;;;;;;;;;5222144;27;20880;-86
2024/04/22 10:07:43;;;;;;;7.70;7.00;;;;;;;;;;5205685;27;20546;-84
2024/04/22 10:10:10;;;;;;;7.10;6.60;;;;;;;;;;5201184;27;20477;-86
2024/04/22 10:12:36;;;;;;;7.60;6.85;;;;;;;;;;5207940;27;20602;-84
2024/04/22 10:15:05;;;;;;;7.85;7.28;;;;;;;;;;5212092;27;20245;-83
2024/04/22 10:17:31;;;;;;;8.63;8.02;;;;;;;;;;5203774;27;20296;-85
2024/04/22 10:19:57;;;;;;;7.65;7.15;;;;;;;;;;5205064;27;20252;-85
2024/04/22 10:22:29;;;;;;;6.93;6.63;;;;;;;;;;5204128;27;20355;-86
2024/04/22 10:24:55;;;;;;;7.13;6.72;;;;;;;;;;5205090;27;20467;-86
2024/04/22 10:27:21;;;;;;;7.13;6.73;;;;;;;;;;5200801;27;20561;-85
2024/04/22 10:29:47;;;;;;;8.40;7.80;;;;;;;;;;5216930;27;20523;-86
2024/04/22 10:32:13;;;;;;;7.77;7.37;;;;;;;;;;5165487;27;20612;-86
2024/04/22 10:34:43;;;;;;;8.87;8.27;;;;;;;;;;5219076;27;20534;-86
2024/04/22 10:37:10;;;;;;;7.63;7.22;;;;;;;;;;5206076;27;20833;-85
2024/04/22 10:39:36;;;;;;;6.80;6.40;;;;;;;;;;5181997;27;20249;-85
2024/04/22 10:42:01;;;;;;;7.70;7.20;;;;;;;;;;5168732;27;20482;-86
2024/04/22 10:44:27;;;;;;;8.30;7.70;;;;;;;;;;5209247;27;20480;-85
2024/04/22 10:46:54;;;;;;;8.23;7.73;;;;;;;;;;5203942;27;20527;-85
2024/04/22 10:49:20;;;;;;;7.73;7.20;;;;;;;;;;5180345;27;20492;-86
2024/04/22 10:51:46;;;;;;;7.90;7.27;;;;;;;;;;5214546;27;20461;-86
2024/04/22 10:54:13;;;;;;;6.97;6.27;;;;;;;;;;5189767;27;20572;-84
2024/04/22 10:56:40;;;;;;;7.43;6.90;;;;;;;;;;5204251;27;20450;-86
2024/04/22 10:59:06;;;;;;;6.90;6.40;;;;;;;;;;5189852;27;20267;-86
2024/04/22 11:01:32;;;;;;;8.60;7.80;;;;;;;;;;5239765;27;20712;-86
2024/04/22 11:03:58;;;;;;;8.38;7.63;;;;;;;;;;5210359;27;20360;-87
2024/04/22 11:06:25;;;;;;;7.90;7.30;;;;;;;;;;5198485;27;20257;-85
2024/04/22 11:08:51;;;;;;;7.60;7.10;;;;;;;;;;5219444;27;20294;-86
2024/04/22 11:11:17;;;;;;;7.00;6.60;;;;;;;;;;5210354;27;20248;-86
2024/04/22 11:13:46;;;;;;;6.55;6.15;;;;;;;;;;5199231;27;20246;-84
2024/04/22 11:16:15;;;;;;;8.50;8.00;;;;;;;;;;5202824;27;20250;-85
2024/04/22 11:18:41;;;;;;;10.65;9.60;;;;;;;;;;5215773;27;20344;-85
2024/04/22 11:21:07;;;;;;;10.50;9.90;;;;;;;;;;5212567;27;20733;-84
2024/04/22 11:23:33;;;;;;;9.75;9.25;;;;;;;;;;5195909;27;20532;-83
2024/04/22 11:25:59;;;;;;;10.40;9.80;;;;;;;;;;5214520;27;20729;-84
2024/04/22 11:28:25;;;;;;;10.50;9.90;;;;;;;;;;5208105;27;20539;-85
2024/04/22 11:30:51;;;;;;;9.50;9.00;;;;;;;;;;5166766;27;20253;-85
2024/04/22 11:33:23;;;;;;;8.85;8.35;;;;;;;;;;5219204;27;20261;-84
2024/04/22 11:35:53;;;;;;;9.75;8.95;;;;;;;;;;5217983;27;20242;-85
2024/04/22 11:38:23;;;;;;;10.02;9.18;;;;;;;;;;5200852;27;20253;-85
2024/04/22 11:40:50;;;;;;;8.23;7.75;;;;;;;;;;5177075;27;20244;-83
2024/04/22 11:43:16;;;;;;;7.20;6.80;;;;;;;;;;5208237;27;20249;-85
2024/04/22 11:45:42;;;;;;;7.45;7.07;;;;;;;;;;5207037;27;20684;-85
2024/04/22 11:48:08;;;;;;;7.60;7.00;;;;;;;;;;5194368;27;20291;-85
2024/04/22 11:50:37;;;;;;;7.90;7.40;;;;;;;;;;5206473;27;20245;-85
2024/04/22 11:53:03;;;;;;;8.20;7.70;;;;;;;;;;5163100;27;20788;-84
2024/04/22 11:55:29;;;;;;;8.00;7.20;;;;;;;;;;5222819;27;20241;-84
2024/04/22 11:57:55;;;;;;;8.13;7.63;;;;;;;;;;5203659;27;20533;-85
2024/04/22 12:00:21;;;;;;;8.30;7.53;;;;;;;;;;5217360;27;20795;-87
2024/04/22 12:02:47;;;;;;;8.63;8.13;;;;;;;;;;5211312;27;20525;-85
2024/04/22 12:05:14;;;;;;;8.63;8.13;;;;;;;;;;5195999;27;21089;-85
2024/04/22 12:07:43;;;;;;;9.20;8.50;;;;;;;;;;5180117;27;21069;-84
2024/04/22 12:10:09;;;;;;;8.97;8.33;;;;;;;;;;5212227;27;20472;-84
2024/04/22 12:12:35;;;;;;;10.00;9.20;;;;;;;;;;5214198;27;20945;-84
2024/04/22 12:15:02;;;;;;;9.90;9.13;;;;;;;;;;5191673;27;20477;-86
2024/04/22 12:17:29;;;;;;;9.27;8.57;;;;;;;;;;5213991;27;20472;-82
2024/04/22 12:19:55;;;;;;;9.53;8.83;;;;;;;;;;5211364;27;21086;-86
2024/04/22 12:22:22;;;;;;;11.40;10.50;;;;;;;;;;5217635;27;20546;-87
2024/04/22 12:24:48;;;;;;;9.70;8.90;;;;;;;;;;5201968;27;20520;-86
2024/04/22 12:27:14;;;;;;;9.30;8.60;;;;;;;;;;5194639;27;20481;-86
2024/04/22 12:29:40;;;;;;;8.60;7.90;;;;;;;;;;5212430;27;20856;-86
2024/04/22 12:32:06;;;;;;;8.83;8.33;;;;;;;;;;5213674;27;20477;-86
2024/04/22 12:34:32;;;;;;;8.83;8.23;;;;;;;;;;5208759;27;20549;-86
2024/04/22 12:36:59;;;;;;;8.95;8.35;;;;;;;;;;5207333;27;20506;-86
2024/04/22 12:39:25;;;;;;;8.90;8.30;;;;;;;;;;5209557;27;20295;-85
2024/04/22 12:41:51;;;;;;;8.87;8.07;;;;;;;;;;5194401;27;20557;-87
2024/04/22 12:44:17;;;;;;;9.73;8.80;;;;;;;;;;5213576;27;20473;-87
2024/04/22 12:52:13;;;;;;;8.63;8.02;;;;;;;;;;5217959;27;20339;-87
2024/04/22 12:54:42;;;;;;;10.90;9.88;;;;;;;;;;5203485;27;20252;-86
2024/04/22 12:57:08;;;;;;;9.30;8.60;;;;;;;;;;5216781;27;20243;-85
2024/04/22 12:59:37;;;;;;;9.30;8.50;;;;;;;;;;5205806;27;20361;-87
2024/04/22 13:02:07;;;;;;;9.18;8.57;;;;;;;;;;5216528;27;20284;-86
2024/04/22 13:04:33;;;;;;;7.15;6.65;;;;;;;;;;5170661;27;20340;-85
2024/04/22 13:06:59;;;;;;;7.87;7.37;;;;;;;;;;5192317;27;20256;-85
2024/04/22 13:09:25;;;;;;;7.30;6.90;;;;;;;;;;5211271;27;20528;-88
2024/04/22 13:11:51;;;;;;;7.87;7.37;;;;;;;;;;5209645;27;20468;-86
2024/04/22 13:14:17;;;;;;;7.60;7.20;;;;;;;;;;5207567;27;20529;-89
2024/04/22 13:16:43;;;;;;;6.53;6.23;;;;;;;;;;5212696;27;20797;-85
2024/04/22 13:19:09;;;;;;;6.70;6.40;;;;;;;;;;5186551;27;21089;-86
2024/04/22 13:21:35;;;;;;;7.10;6.60;;;;;;;;;;5151486;27;20249;-86
2024/04/22 13:24:01;;;;;;;6.00;5.60;;;;;;;;;;5193779;27;21042;-86
2024/04/22 13:26:27;;;;;;;6.60;6.20;;;;;;;;;;5216235;27;20267;-86
2024/04/22 13:28:53;;;;;;;6.47;6.17;;;;;;;;;;5199494;27;20478;-85
2024/04/22 13:31:19;;;;;;;6.53;6.17;;;;;;;;;;5169285;27;20488;-86
2024/04/22 13:33:45;;;;;;;6.90;6.40;;;;;;;;;;5200932;27;20469;-86
2024/04/22 13:36:11;;;;;;;6.57;6.20;;;;;;;;;;5212587;27;20537;-87
2024/04/22 13:38:37;;;;;;;6.70;6.40;;;;;;;;;;5170765;27;20476;-87
2024/04/22 13:41:03;;;;;;;7.00;6.60;;;;;;;;;;5204707;27;20594;-87
2024/04/22 13:43:29;;;;;;;6.47;6.07;;;;;;;;;;5208577;27;21027;-86
2024/04/22 13:45:55;;;;;;;7.40;6.93;;;;;;;;;;5207770;27;20558;-87
2024/04/22 13:48:21;;;;;;;6.43;6.13;;;;;;;;;;5200813;27;20506;-87
2024/04/22 13:50:47;;;;;;;6.90;6.50;;;;;;;;;;5199872;27;20590;-87
2024/04/22 13:53:13;;;;;;;7.37;6.87;;;;;;;;;;5192113;27;20951;-87
2024/04/22 13:55:39;;;;;;;7.40;6.90;;;;;;;;;;5203795;27;20484;-87
2024/04/22 13:58:05;;;;;;;6.63;6.23;;;;;;;;;;5176035;27;20596;-87
2024/04/22 14:00:31;;;;;;;7.70;6.77;;;;;;;;;;5172794;27;20464;-90
2024/04/22 14:02:57;;;;;;;7.30;6.80;;;;;;;;;;5211405;27;21140;-89
2024/04/22 14:05:23;;;;;;;7.03;6.63;;;;;;;;;;5214109;27;20468;-88
2024/04/22 14:07:49;;;;;;;7.10;6.60;;;;;;;;;;5226878;27;20537;-88
2024/04/22 14:10:15;;;;;;;7.60;7.10;;;;;;;;;;5210326;27;20476;-87
2024/04/22 14:12:41;;;;;;;7.30;6.80;;;;;;;;;;5197796;27;20458;-87
2024/04/22 14:15:07;;;;;;;6.57;6.27;;;;;;;;;;5230336;27;20492;-87
2024/04/22 14:17:34;;;;;;;6.73;6.33;;;;;;;;;;5173907;27;20602;-88
2024/04/22 14:20:00;;;;;;;7.83;7.23;;;;;;;;;;5201065;27;20481;-88
2024/04/22 14:22:26;;;;;;;7.10;6.77;;;;;;;;;;5222115;27;20904;-87
2024/04/22 14:24:52;;;;;;;5.83;5.53;;;;;;;;;;5181753;27;20516;-88
2024/04/22 14:27:18;;;;;;;6.30;5.80;;;;;;;;;;5226267;27;20468;-88
2024/04/22 14:29:44;;;;;;;7.13;6.63;;;;;;;;;;5172180;27;20476;-87
2024/04/22 14:32:10;;;;;;;8.40;7.57;;;;;;;;;;5204165;27;20603;-87
2024/04/22 14:34:36;;;;;;;8.03;7.60;;;;;;;;;;5181459;27;20984;-86
2024/04/22 14:37:02;;;;;;;8.23;7.73;;;;;;;;;;5200105;27;20484;-87